Time;durP1;ratioP1;P1;durP2;ratioP2;P2;SDS_P1;SDS_P2;PMS_P1;PMS_P2;Temp;Humidity;BMP_temperature;BMP_pressure;BME280_temperature;BME280_humidity;BME280_pressure;Samples;Min_cycle;Max_cycle;Signal;HPM_P1;HPM_P2
2023/05/27 00:03:50;;;;;;;13.20;4.50;;;;;;;15.50;46.63;99667.89;223806;181;138384;-68
2023/05/27 00:08:53;;;;;;;16.40;4.60;;;;;;;15.45;46.65;99667.73;223717;181;136652;-68
2023/05/27 00:13:56;;;;;;;10.30;3.90;;;;;;;15.38;46.79;99666.39;223729;181;143867;-68
2023/05/27 00:19:00;;;;;;;11.60;4.20;;;;;;;15.34;46.82;99665.97;223656;181;139351;-68
2023/05/27 00:24:04;;;;;;;13.30;4.30;;;;;;;15.29;47.15;99653.80;223714;181;137282;-67
2023/05/27 00:29:07;;;;;;;17.60;6.30;;;;;;;15.22;47.24;99654.50;223581;181;145290;-65
2023/05/27 00:34:11;;;;;;;11.60;4.20;;;;;;;15.14;47.39;99649.86;223630;182;138631;-63
2023/05/27 00:39:14;;;;;;;19.00;4.40;;;;;;;15.07;47.61;99649.08;223396;182;137868;-67
2023/05/27 02:45:29;;;;;;;12.70;4.50;;;;;;;13.28;54.98;99745.02;220775;193;666000;-64
2023/05/27 02:50:33;;;;;;;13.00;4.70;;;;;;;13.19;55.25;99751.77;223639;183;136266;-69
2023/05/27 02:55:37;;;;;;;13.50;4.40;;;;;;;13.11;55.57;99755.84;223642;183;143479;-67
2023/05/27 03:00:41;;;;;;;11.90;4.60;;;;;;;13.10;55.82;99763.05;221346;182;140024;-67
2023/05/27 03:05:44;;;;;;;13.70;4.60;;;;;;;13.06;56.09;99764.86;222424;183;136552;-66
2023/05/27 03:10:47;;;;;;;9.30;4.20;;;;;;;13.07;56.07;99770.90;223743;183;143941;-66
2023/05/27 03:15:50;;;;;;;12.80;4.70;;;;;;;13.10;56.17;99779.08;223600;183;138879;-66
2023/05/27 03:20:54;;;;;;;13.10;4.80;;;;;;;13.12;56.05;99783.92;223629;183;137354;-70
2023/05/27 03:25:57;;;;;;;15.90;5.10;;;;;;;13.16;56.12;99793.11;223683;183;145393;-67
2023/05/27 03:31:03;;;;;;;14.00;4.30;;;;;;;13.26;55.70;99792.55;223782;179;139004;-64
2023/05/27 03:36:29;;;;;;;12.80;4.80;;;;;;;13.40;54.89;99787.55;223516;183;136797;-64
2023/05/27 03:41:34;;;;;;;37.10;21.00;;;;;;;13.48;54.55;99786.00;223643;183;145335;-66
2023/05/27 03:46:38;;;;;;;17.10;5.20;;;;;;;13.58;54.68;99792.92;223638;183;138182;-65
2023/05/27 03:51:42;;;;;;;49.30;28.40;;;;;;;13.57;54.98;99795.48;223548;183;136764;-67
2023/05/27 03:56:47;;;;;;;;;;;;;;;13.53;55.47;99798.92;223627;184;145703;-65
2023/05/27 04:01:51;;;;;;;16.20;5.20;;;;;;;13.45;55.56;99808.48;223611;183;138486;-64
2023/05/27 04:06:55;;;;;;;12.20;4.90;;;;;;;13.43;55.18;99811.46;223504;184;136956;-66
2023/05/27 04:11:58;;;;;;;15.20;5.10;;;;;;;13.48;55.15;99816.84;223584;183;145351;-64
2023/05/27 04:17:01;;;;;;;72.10;50.20;;;;;;;13.54;55.01;99819.17;223724;183;139273;-67
2023/05/27 04:22:05;;;;;;;14.40;5.60;;;;;;;13.62;54.88;99825.08;223703;182;136875;-64
2023/05/27 04:27:09;;;;;;;11.30;5.00;;;;;;;13.72;54.68;99820.73;223639;183;145621;-66
2023/05/27 04:33:29;;;;;;;14.00;4.80;;;;;;;13.76;54.41;99827.10;220299;193;666237;-64
2023/05/27 04:38:33;;;;;;;14.20;4.60;;;;;;;13.73;54.42;99830.46;223645;183;137205;-66
2023/05/27 04:43:41;;;;;;;13.80;4.80;;;;;;;13.69;54.50;99832.31;223712;183;145605;-66
2023/05/27 04:48:46;;;;;;;16.80;5.00;;;;;;;13.71;54.78;99838.61;223778;182;138948;-64
2023/05/27 05:33:30;;;;;;;14.50;4.30;;;;;;;14.04;54.51;99835.88;219644;193;665733;-69
2023/05/27 05:38:34;;;;;;;13.60;4.20;;;;;;;14.11;54.08;99836.31;220943;183;137028;-68
2023/05/27 05:43:37;;;;;;;13.00;4.10;;;;;;;14.18;54.08;99836.94;220903;183;144454;-66
2023/05/27 05:48:41;;;;;;;10.80;4.10;;;;;;;14.22;53.85;99835.77;223558;183;140342;-64
2023/05/27 05:53:46;;;;;;;11.70;3.90;;;;;;;14.26;53.86;99840.30;223664;183;136605;-66
2023/05/27 05:58:50;;;;;;;17.00;5.10;;;;;;;14.30;53.70;99840.94;223562;184;144362;-66
2023/05/27 06:03:56;;;;;;;11.20;4.30;;;;;;;14.37;53.77;99843.20;223605;183;138546;-65
2023/05/27 06:09:06;;;;;;;11.90;3.70;;;;;;;14.38;53.22;99847.38;223712;183;137178;-69
2023/05/27 06:14:09;;;;;;;13.70;4.40;;;;;;;14.39;53.22;99845.02;223575;183;143471;-66
2023/05/27 06:19:12;;;;;;;13.80;4.40;;;;;;;14.47;53.20;99845.19;223737;181;138565;-68
2023/05/27 06:24:28;;;;;;;13.50;3.70;;;;;;;14.53;53.36;99845.40;223794;181;137083;-66
2023/05/27 06:35:21;;;;;;;19.40;4.60;;;;;;;14.76;53.35;99850.15;221501;227;675974;-69
2023/05/27 06:40:25;;;;;;;16.00;4.50;;;;;;;14.80;52.82;99853.92;223611;182;136379;-67
2023/05/27 06:45:28;;;;;;;10.90;3.90;;;;;;;14.90;52.04;99850.07;223614;183;145325;-64
2023/05/27 06:50:40;;;;;;;14.80;4.20;;;;;;;14.95;52.25;99851.36;223536;183;138985;-64
2023/05/27 06:55:44;;;;;;;16.20;4.30;;;;;;;15.02;52.48;99851.22;223662;183;139845;-71
2023/05/27 07:01:03;;;;;;;19.10;4.00;;;;;;;15.13;52.17;99850.88;223535;183;145958;-68
2023/05/27 07:06:11;;;;;;;15.00;4.40;;;;;;;15.18;51.79;99850.88;223572;183;138844;-65
2023/05/27 07:11:27;;;;;;;15.00;4.20;;;;;;;15.31;51.95;99845.89;223656;184;136275;-62
2023/05/27 07:16:37;;;;;;;14.10;4.40;;;;;;;15.40;51.15;99849.58;223515;183;143390;-66
2023/05/27 07:21:41;;;;;;;16.40;4.40;;;;;;;15.53;51.12;99854.02;223258;183;138305;-64
2023/05/27 07:26:49;;;;;;;13.90;3.50;;;;;;;15.60;51.06;99854.05;223653;183;136858;-68
2023/05/27 07:33:29;;;;;;;13.50;3.60;;;;;;;15.72;50.81;99848.95;221676;190;666053;-65
2023/05/27 07:38:32;;;;;;;14.00;4.30;;;;;;;15.79;50.67;99845.23;223299;185;136812;-69
2023/05/27 07:43:35;;;;;;;15.20;4.50;;;;;;;15.84;50.57;99844.86;223667;182;143554;-71
2023/05/27 07:48:38;;;;;;;13.90;4.10;;;;;;;15.91;50.81;99851.19;223600;182;138119;-65
2023/05/27 07:53:43;;;;;;;13.60;4.70;;;;;;;16.01;50.50;99846.73;223741;182;136363;-70
2023/05/27 07:58:47;;;;;;;13.30;4.20;;;;;;;16.11;50.68;99841.52;223692;182;144769;-65
2023/05/27 08:03:51;;;;;;;15.30;4.30;;;;;;;16.21;50.18;99841.00;223591;183;138967;-71
2023/05/27 08:09:32;;;;;;;13.40;4.00;;;;;;;16.29;50.07;99838.95;223664;182;136300;-68
2023/05/27 08:14:56;;;;;;;12.80;3.90;;;;;;;16.39;50.07;99839.15;223758;182;143637;-65
2023/05/27 08:20:31;;;;;;;10.90;4.00;;;;;;;16.45;49.38;99841.04;223560;182;139057;-72
2023/05/27 08:25:53;;;;;;;15.30;3.90;;;;;;;16.53;48.38;99842.20;223689;183;136545;-65
2023/05/27 08:31:21;;;;;;;14.10;4.10;;;;;;;16.63;48.99;99838.06;223760;181;145430;-63
2023/05/27 08:36:29;;;;;;;204.20;134.70;;;;;;;16.70;49.52;99842.23;223717;182;140506;-63
2023/05/27 08:41:33;;;;;;;26.50;11.70;;;;;;;16.84;50.47;99836.02;223643;181;138322;-66
2023/05/27 08:46:39;;;;;;;12.80;4.80;;;;;;;16.96;49.22;99832.92;223528;182;144997;-63
2023/05/27 08:52:30;;;;;;;12.70;4.20;;;;;;;17.05;49.49;99829.19;219461;194;676871;-65
2023/05/27 08:57:35;;;;;;;14.90;4.30;;;;;;;17.11;49.13;99830.20;223134;187;136762;-63
2023/05/27 09:02:40;;;;;;;15.60;5.10;;;;;;;17.18;48.99;99818.76;223520;183;145380;-64
2023/05/27 09:07:49;;;;;;;11.40;4.10;;;;;;;17.40;51.93;99815.16;223481;183;138384;-63
2023/05/27 09:12:52;;;;;;;23.00;10.20;;;;;;;18.06;53.10;99808.75;223527;184;138906;-63
2023/05/27 09:17:55;;;;;;;59.20;32.00;;;;;;;18.45;51.14;99802.85;223643;184;143788;-64
2023/05/27 09:23:04;;;;;;;32.30;17.00;;;;;;;18.78;49.91;99798.20;223521;183;138270;-63
2023/05/27 09:28:08;;;;;;;20.00;8.20;;;;;;;19.06;49.18;99788.29;223566;183;139065;-63
2023/05/27 09:33:11;;;;;;;16.90;5.50;;;;;;;19.35;48.11;99782.88;223516;184;143309;-65
2023/05/27 09:38:15;;;;;;;17.50;4.60;;;;;;;19.53;47.55;99780.91;223404;184;138456;-64
2023/05/27 09:43:19;;;;;;;10.90;4.10;;;;;;;19.66;46.96;99776.60;223490;183;136808;-62
2023/05/27 09:48:23;;;;;;;15.90;4.10;;;;;;;19.63;47.06;99772.93;223454;183;145887;-63
2023/05/27 09:53:27;;;;;;;15.40;5.40;;;;;;;19.66;46.44;99771.77;223675;182;139161;-62
2023/05/27 09:58:31;;;;;;;13.80;4.90;;;;;;;19.83;45.69;99771.15;223527;182;140009;-62
2023/05/27 10:03:37;;;;;;;11.30;3.90;;;;;;;19.95;44.42;99772.63;223635;182;145393;-62
2023/05/27 10:08:44;;;;;;;9.70;3.80;;;;;;;19.93;43.18;99776.23;223523;182;138471;-60
2023/05/27 10:13:48;;;;;;;10.90;3.90;;;;;;;20.13;43.64;99769.52;223604;182;137509;-62
2023/05/27 10:18:56;;;;;;;18.70;7.30;;;;;;;20.33;40.68;99760.55;223654;182;145998;-62
2023/05/27 10:24:01;;;;;;;10.50;4.40;;;;;;;20.46;38.55;99759.33;223585;182;138317;-63
2023/05/27 10:33:32;;;;;;;8.80;4.90;;;;;;;20.61;35.79;99752.71;221289;194;666583;-62
2023/05/27 10:38:36;;;;;;;9.60;6.10;;;;;;;20.65;35.29;99754.41;223213;185;136792;-65
2023/05/27 10:43:40;;;;;;;39.90;25.30;;;;;;;20.71;34.60;99750.59;223547;183;143147;-63
2023/05/27 10:48:43;;;;;;;23.40;14.30;;;;;;;20.81;34.48;99749.81;223594;181;138243;-63
2023/05/27 10:53:46;;;;;;;9.00;4.70;;;;;;;20.92;33.76;99748.06;223697;182;136602;-62
2023/05/27 10:59:02;;;;;;;10.50;4.60;;;;;;;20.99;34.11;99746.84;223618;182;144279;-62
2023/05/27 11:04:08;;;;;;;8.20;5.00;;;;;;;21.13;34.82;99747.19;223626;182;139831;-62
2023/05/27 11:09:11;;;;;;;157.60;122.40;;;;;;;21.22;34.63;99745.27;223726;182;138600;-63
2023/05/27 11:14:20;;;;;;;12.50;9.40;;;;;;;21.29;35.05;99733.90;223516;182;143666;-62
2023/05/27 11:19:23;;;;;;;10.40;6.70;;;;;;;21.46;36.08;99726.21;223571;181;140616;-63
2023/05/27 11:24:26;;;;;;;8.50;5.20;;;;;;;21.56;36.24;99723.06;223653;182;137626;-63
2023/05/27 11:29:31;;;;;;;12.70;6.10;;;;;;;21.64;35.00;99722.30;223727;182;145340;-65
2023/05/27 11:34:35;;;;;;;8.80;4.50;;;;;;;21.70;35.17;99727.04;223682;182;138143;-64
2023/05/27 11:39:50;;;;;;;11.20;4.40;;;;;;;21.73;35.29;99723.16;223632;182;136570;-63
2023/05/27 11:44:54;;;;;;;10.00;4.40;;;;;;;21.77;33.91;99721.75;223595;181;146040;-64
2023/05/27 11:49:57;;;;;;;9.90;3.80;;;;;;;21.79;34.02;99720.29;223645;182;138461;-64
2023/05/27 11:55:00;;;;;;;8.50;4.30;;;;;;;21.88;35.41;99713.53;223619;181;137001;-62
2023/05/27 12:00:07;;;;;;;8.70;4.70;;;;;;;21.98;36.59;99714.59;223728;182;145256;-62
2023/05/27 12:05:10;;;;;;;7.40;3.60;;;;;;;22.07;35.32;99710.11;223655;181;138547;-65
2023/05/27 12:10:27;;;;;;;7.90;3.30;;;;;;;22.18;34.24;99712.11;223714;182;136809;-64
2023/05/27 12:15:31;;;;;;;5.60;3.50;;;;;;;22.34;33.19;99708.45;223524;182;145275;-64
2023/05/27 12:20:36;;;;;;;8.60;3.80;;;;;;;22.46;33.18;99709.04;223690;182;139513;-64
2023/05/27 12:25:45;;;;;;;6.60;3.10;;;;;;;22.57;32.33;99703.52;223500;182;138372;-62
2023/05/27 12:30:48;;;;;;;9.00;3.50;;;;;;;22.73;32.21;99700.53;223093;181;145875;-63
2023/05/27 12:35:52;;;;;;;6.70;3.00;;;;;;;22.88;33.01;99695.25;223688;181;138493;-63
2023/05/27 12:40:56;;;;;;;7.00;2.90;;;;;;;23.05;32.53;99684.48;223748;182;136913;-63
2023/05/27 12:45:59;;;;;;;6.00;2.90;;;;;;;23.22;32.96;99682.64;223592;182;145703;-63
2023/05/27 12:51:03;;;;;;;9.40;2.90;;;;;;;23.44;32.35;99684.37;223629;182;141060;-64
2023/05/27 12:56:06;;;;;;;8.80;3.10;;;;;;;23.47;33.36;99688.21;223619;182;136639;-63
2023/05/27 13:01:10;;;;;;;7.30;2.80;;;;;;;23.44;32.74;99682.52;223608;182;146868;-66
2023/05/27 13:06:13;;;;;;;8.10;3.00;;;;;;;23.45;32.91;99686.99;223699;182;139190;-64
2023/05/27 13:11:17;;;;;;;6.90;2.80;;;;;;;23.44;33.15;99681.23;223734;182;136443;-64
2023/05/27 13:16:20;;;;;;;8.20;2.80;;;;;;;23.40;33.05;99673.70;223624;182;145177;-63
2023/05/27 13:21:23;;;;;;;4.50;2.30;;;;;;;23.50;32.79;99671.05;223622;181;138968;-63
2023/05/27 13:26:28;;;;;;;4.60;2.80;;;;;;;23.72;32.62;99666.36;223711;182;136231;-63
2023/05/27 13:31:32;;;;;;;6.00;2.60;;;;;;;23.86;32.00;99661.81;223567;181;145171;-64
2023/05/27 13:36:35;;;;;;;6.50;2.70;;;;;;;23.88;31.64;99662.44;223610;181;140236;-64
2023/05/27 13:41:39;;;;;;;3.80;2.20;;;;;;;24.01;30.48;99659.82;223698;181;140363;-64
2023/05/27 13:46:46;;;;;;;4.80;2.30;;;;;;;24.26;29.95;99652.45;223722;182;146861;-63
2023/05/27 13:51:51;;;;;;;4.30;2.00;;;;;;;24.37;29.47;99644.40;223629;182;141455;-65
2023/05/27 13:56:54;;;;;;;9.00;2.60;;;;;;;24.37;30.65;99638.33;223704;181;137071;-66
2023/05/27 14:01:57;;;;;;;5.10;2.10;;;;;;;24.29;30.60;99637.56;223590;182;145326;-67
2023/05/27 14:07:01;;;;;;;5.30;2.20;;;;;;;24.18;31.01;99633.60;223653;182;139557;-64
2023/05/27 14:12:05;;;;;;;4.40;2.60;;;;;;;24.06;30.81;99631.52;223694;182;136730;-66
2023/05/27 14:17:08;;;;;;;5.40;2.80;;;;;;;24.01;31.42;99626.61;223599;182;147606;-66
2023/05/27 14:22:11;;;;;;;4.10;2.40;;;;;;;23.92;31.58;99626.02;223580;182;138884;-66
2023/05/27 14:27:16;;;;;;;5.80;2.70;;;;;;;23.82;31.23;99630.27;223580;182;137210;-64
2023/05/27 14:32:19;;;;;;;3.80;2.50;;;;;;;23.69;31.59;99625.39;223493;182;146998;-63
2023/05/27 14:37:23;;;;;;;8.00;3.00;;;;;;;23.47;31.72;99618.27;223640;182;140400;-65
2023/05/27 14:42:26;;;;;;;8.30;2.50;;;;;;;23.17;32.58;99614.77;223775;182;138294;-65
2023/05/27 14:47:29;;;;;;;5.60;2.10;;;;;;;22.80;31.36;99605.08;223707;182;145991;-65
2023/05/27 14:52:33;;;;;;;6.30;1.90;;;;;;;22.50;31.79;99606.48;223731;182;139330;-64
2023/05/27 14:57:36;;;;;;;4.20;1.60;;;;;;;22.27;31.75;99599.42;223790;182;141221;-65
2023/05/27 15:02:39;;;;;;;5.20;2.20;;;;;;;22.10;31.60;99597.15;223651;182;145554;-65
2023/05/27 15:07:43;;;;;;;4.90;1.80;;;;;;;21.96;31.83;99586.52;223697;182;138662;-66
2023/05/27 15:12:47;;;;;;;5.10;2.00;;;;;;;21.89;32.13;99585.39;223581;182;137707;-65
2023/05/27 17:25:28;;;;;;;7.20;2.90;;;;;;;20.37;39.15;99547.15;219672;193;665956;-64
2023/05/27 17:30:35;;;;;;;5.50;2.30;;;;;;;20.35;39.61;99550.23;223597;183;137112;-65
2023/05/27 17:35:39;;;;;;;8.20;2.50;;;;;;;20.34;39.75;99550.63;223506;184;143104;-65
2023/05/27 17:40:42;;;;;;;6.80;3.00;;;;;;;20.30;39.58;99552.85;223525;184;138366;-64
2023/05/27 17:45:45;;;;;;;9.80;3.10;;;;;;;20.23;39.86;99561.89;223517;185;137472;-64
2023/05/27 17:50:48;;;;;;;7.10;3.20;;;;;;;20.18;40.25;99560.80;223496;184;144783;-64
2023/05/27 17:55:52;;;;;;;9.00;3.10;;;;;;;20.10;40.88;99565.49;223609;183;138408;-65
2023/05/27 18:00:58;;;;;;;10.00;3.60;;;;;;;19.92;41.33;99566.63;223605;183;137042;-64
2023/05/27 18:06:04;;;;;;;10.40;3.60;;;;;;;19.76;41.78;99569.39;223544;183;144239;-66
2023/05/27 18:11:07;;;;;;;8.30;3.10;;;;;;;19.65;42.33;99572.74;223579;183;138547;-64
2023/05/27 18:16:11;;;;;;;11.00;3.70;;;;;;;19.53;42.64;99579.70;223502;183;136734;-65
2023/05/27 18:21:14;;;;;;;8.30;3.90;;;;;;;19.39;43.05;99580.77;223657;183;145911;-65
2023/05/27 18:26:18;;;;;;;8.60;4.50;;;;;;;19.25;43.41;99579.51;223555;183;138529;-65
2023/05/27 18:31:24;;;;;;;10.70;5.10;;;;;;;19.09;43.64;99583.27;223572;183;137123;-63
2023/05/27 18:36:40;;;;;;;9.60;5.40;;;;;;;18.94;44.24;99588.39;223633;181;145320;-64
2023/05/27 18:41:58;;;;;;;13.40;6.10;;;;;;;18.80;44.57;99589.61;223609;182;139273;-66
2023/05/27 18:47:02;;;;;;;15.20;8.00;;;;;;;18.63;45.02;99602.07;223699;181;137385;-67
2023/05/27 18:52:05;;;;;;;21.30;8.20;;;;;;;18.48;45.32;99613.60;223640;182;146296;-64
2023/05/27 18:57:08;;;;;;;14.10;8.10;;;;;;;18.34;46.02;99618.36;223509;181;137608;-66
2023/05/27 19:02:12;;;;;;;14.20;7.30;;;;;;;18.19;46.56;99623.59;223519;181;138767;-65
2023/05/27 19:07:16;;;;;;;17.20;7.70;;;;;;;18.04;46.90;99622.20;223451;181;146920;-66
2023/05/27 19:12:20;;;;;;;16.60;7.90;;;;;;;17.90;47.17;99623.29;223496;181;138955;-64
2023/05/27 19:17:23;;;;;;;16.30;7.30;;;;;;;17.78;47.55;99622.17;223460;182;137680;-64
2023/05/27 19:22:26;;;;;;;16.80;6.80;;;;;;;17.65;47.96;99620.31;223528;181;145368;-64
2023/05/27 19:27:30;;;;;;;14.80;7.50;;;;;;;17.52;48.43;99624.23;223433;181;139492;-64
2023/05/27 19:33:32;;;;;;;17.80;8.20;;;;;;;17.45;49.20;99630.08;220406;193;666468;-65
2023/05/27 19:38:35;;;;;;;15.80;7.40;;;;;;;17.35;49.46;99637.50;223576;183;136446;-65
2023/05/27 19:43:38;;;;;;;14.80;6.50;;;;;;;17.31;50.11;99637.66;223574;183;143896;-63
2023/05/27 19:48:41;;;;;;;16.30;6.30;;;;;;;17.27;50.59;99637.42;223552;183;138604;-65
2023/05/27 19:53:54;;;;;;;12.50;6.00;;;;;;;17.25;50.94;99638.98;223768;181;136373;-65
2023/05/27 19:58:58;;;;;;;14.10;6.10;;;;;;;17.28;51.12;99639.13;223778;180;143225;-66
2023/05/27 20:04:01;;;;;;;12.60;5.60;;;;;;;17.29;51.25;99637.45;223674;181;142046;-66
2023/05/27 20:09:05;;;;;;;12.10;5.70;;;;;;;17.26;51.31;99637.67;223807;181;137253;-64
2023/05/27 20:14:08;;;;;;;12.90;6.10;;;;;;;17.24;51.35;99635.48;223872;181;144128;-63
2023/05/27 20:19:11;;;;;;;12.20;5.50;;;;;;;17.22;51.41;99636.02;223748;181;140351;-65
2023/05/27 20:24:15;;;;;;;12.40;5.70;;;;;;;17.20;51.31;99633.35;223804;180;137159;-64
2023/05/27 20:29:18;;;;;;;13.30;5.70;;;;;;;17.16;51.39;99635.23;223692;181;145786;-64
2023/05/27 20:34:21;;;;;;;13.70;6.30;;;;;;;17.11;51.34;99634.05;223594;182;139522;-65
2023/05/27 20:39:25;;;;;;;10.80;5.50;;;;;;;17.05;51.49;99633.95;223720;178;137019;-65
2023/05/27 20:44:28;;;;;;;11.90;5.00;;;;;;;16.99;51.32;99629.93;223676;181;145845;-65
2023/05/27 20:49:32;;;;;;;12.60;5.10;;;;;;;16.93;51.29;99635.09;223774;181;138861;-65
2023/05/27 20:54:36;;;;;;;10.10;5.10;;;;;;;16.86;51.34;99634.04;223671;181;136684;-66
2023/05/27 20:59:39;;;;;;;11.20;5.40;;;;;;;16.76;51.41;99634.44;223671;181;145877;-66
2023/05/27 21:04:42;;;;;;;9.90;4.70;;;;;;;16.67;51.17;99637.32;223574;181;138522;-65
2023/05/27 21:09:46;;;;;;;9.70;4.50;;;;;;;16.59;50.73;99632.02;223631;182;136596;-63
2023/05/27 21:14:49;;;;;;;8.60;4.10;;;;;;;16.50;50.41;99633.77;223654;181;146167;-66
2023/05/27 21:19:52;;;;;;;9.60;4.50;;;;;;;16.42;50.46;99631.91;223763;181;139246;-66
2023/05/27 21:24:56;;;;;;;8.50;4.60;;;;;;;16.32;50.37;99630.27;223831;181;136348;-66
2023/05/27 21:33:39;;;;;;;9.30;4.90;;;;;;;16.21;50.18;99635.06;220218;191;668650;-64
2023/05/27 21:38:45;;;;;;;8.90;4.80;;;;;;;16.14;50.00;99636.50;223110;187;136399;-63
2023/05/27 21:43:52;;;;;;;10.60;6.00;;;;;;;16.08;50.31;99634.92;223643;180;144278;-64
2023/05/27 21:49:01;;;;;;;9.30;5.60;;;;;;;16.03;50.14;99634.10;223471;184;141497;-65
2023/05/27 21:54:04;;;;;;;10.80;6.00;;;;;;;15.97;50.14;99637.23;223479;184;137024;-66
2023/05/27 21:59:08;;;;;;;10.60;5.90;;;;;;;15.92;49.98;99630.27;223395;184;143559;-63
2023/05/27 22:04:11;;;;;;;13.70;5.70;;;;;;;15.87;50.03;99632.09;223546;183;138472;-65
2023/05/27 22:09:15;;;;;;;12.60;5.10;;;;;;;15.78;50.05;99631.66;223640;183;136405;-65
2023/05/27 22:14:18;;;;;;;17.80;5.60;;;;;;;15.69;50.33;99631.23;223565;183;143990;-66
2023/05/27 22:19:22;;;;;;;9.50;5.00;;;;;;;15.52;50.33;99626.05;223635;183;138899;-67
2023/05/27 22:24:25;;;;;;;10.50;4.80;;;;;;;15.34;50.24;99628.61;223610;183;136557;-64
2023/05/27 22:29:28;;;;;;;10.20;4.60;;;;;;;15.20;50.09;99624.80;223637;182;145304;-64
2023/05/27 22:34:31;;;;;;;8.70;4.40;;;;;;;15.09;49.95;99620.06;223595;181;138960;-64
2023/05/27 22:39:34;;;;;;;9.80;4.50;;;;;;;14.97;49.98;99619.47;223719;182;140074;-63
2023/05/27 22:44:37;;;;;;;9.50;4.90;;;;;;;14.82;50.17;99617.27;223664;182;145555;-63
2023/05/27 22:49:41;;;;;;;7.90;3.80;;;;;;;14.71;49.95;99612.54;223700;181;139437;-64
2023/05/27 22:54:44;;;;;;;8.60;4.40;;;;;;;14.61;50.35;99609.52;223599;182;136239;-63
2023/05/27 22:59:47;;;;;;;10.20;4.50;;;;;;;14.49;50.55;99606.19;223666;181;145198;-63
2023/05/27 23:04:50;;;;;;;8.90;4.10;;;;;;;14.39;51.07;99599.55;223632;181;138411;-65
2023/05/27 23:09:53;;;;;;;9.70;3.90;;;;;;;14.30;51.26;99598.02;223672;181;136563;-63
2023/05/27 23:14:57;;;;;;;11.90;4.10;;;;;;;14.22;51.30;99598.92;223534;181;145445;-64
2023/05/27 23:20:00;;;;;;;7.80;3.90;;;;;;;14.14;51.66;99595.17;223711;181;138676;-64
2023/05/27 23:25:06;;;;;;;8.00;4.20;;;;;;;14.09;51.86;99592.50;223723;181;136939;-64
2023/05/27 23:33:37;;;;;;;7.60;4.40;;;;;;;13.99;51.93;99589.75;219735;192;666918;-64
2023/05/27 23:38:40;;;;;;;9.50;4.20;;;;;;;13.88;52.40;99593.91;223397;185;138857;-63
2023/05/27 23:43:44;;;;;;;7.00;4.00;;;;;;;13.79;52.52;99588.45;223634;183;143528;-63
2023/05/27 23:48:47;;;;;;;7.60;3.70;;;;;;;13.70;52.70;99581.00;223602;183;138824;-63
2023/05/27 23:53:50;;;;;;;9.00;3.70;;;;;;;13.61;52.88;99572.52;223623;182;138645;-64
2023/05/27 23:58:53;;;;;;;6.80;4.20;;;;;;;13.54;53.19;99575.47;223776;182;144007;-65
